日記第三版


Oct 07, 2009 (Wed)

# AeroWeather、空港の天気が分かるiPhoneアプリ

お天気のiPhoneアプリの定番といえば、ウェザーニュースですが、台風18号が接近しているので、気圧も分かる、一風変ったお天気iPhoenアプリを紹介します。空港の気象実況を表示するAeroWeatherです。けっこうお気に入り。

AeroWeatherは世界中の空港の実況気象通報を表示します。気象情報はMETARというフォーマットで、これは文字列の羅列のため読みにくいですが*1、AeroWeaterを使うと、METARをグラフィカルに見られます。

大阪国際空港、関西国際空港、東京国際空港、但馬空港を表示してみます。但馬は営業時間外なので欠測なのでしょうか(よく分かってません)

AeroWeather

風向き、風速、気圧、雲の高さ、視界などが人目で分かります。空港の今を知るにはとても便利! 普通の天気予報サイトでは気圧まで分かりませんし、視界がどの程度などの情報も載ってません。そんな時にAeroWeatherは役立つのですよ。

デフォルトでは風速がノット、海抜がフィート表示、視界がマイル表示ですが、設定を変更すればメートル単位になります。その道の人ならばデフォルトが望ましいと思いますが、普通の人は変更した方が便利かも(僕はそうしてます)。

世界の知らない国の空港の気象実況を眺めてみるのも面白いものですよ。へー、ミュンヘンは案外寒いんだなー、低気圧接近しているねーと一人喜べます。

*1 例えば、RJBB 071630Z 36038G51KT 9999 -SHRA FEW015 SCT080 BKN100 21/15 Q0982 TEMPO 4000 SHRA BR

# ジェットストリームを購入 #bungu

ゲルインキの三色ボールペンで紹介したSTYLEFITを使っていましたが、グリップ感がしっくり来ないために、いまちち。そのため最近は赤、グレーブラック、グレーブルーの3本のゲルインキボールペンを持ち歩いてました。が、やはり3本を文庫本ノートに装着するのは無理があります(ホルダーを自作したいとは思ってますが)。そこで、気になっていた三菱のジェットストリームを購入してみました。試し書きでは、ん〜どうしようかな、だったのですが、思ったより悪くありません。もちろんゲルインキより筆圧は要りますから、違和感はあります。でも長時間書き続けなければジェットストリームで十分な気がしてきました。文庫本ノートにメモったり、本に書き込むくらいなら問題ないでしょう。普通のボールペンでここまで滑らかなのは始めてですから、スゴイと思います。しばらく試してみます。

外部リンク

Tags: statinery